Accueil
METAR-TAF:

METAR-TAF

Aéroports :

Aéroport de Savannakhet

Savannakhet, Laos

latitude: 16-33-24N, longitude: 104-45-34E, altitude: 155 m

Observation

Le bulletin a été fait il y a 45 minutes, à 04:00 UTC
Vent 2 kt de sud-ouest
Température 31°C
Humidité 71%
Pression 1011 hPa
Visibilité: 6000 m
Nuages épars à une hauteur de 2000 ft
Nuages épars à une hauteur de 10000 ft

METAR: VLSK 260400Z 22002KT 6000 SCT020 SCT100 31/25 Q1011 NOSIG

Heure: 11:45 (04:45 UTC)

Prévision

Le bulletin a été fait il y a 5 heures et 45 minutes, à 23:00 UTC
Prévision valable du 26 à 00 UTC au 26 à 24 UTC
Vent 4 kt de sud/sud-est
Visibilité: 8000 m
Nuages épars à une hauteur de 2000 ft
Nuages épars à une hauteur de 10000 ft

TAF: VLSK 252300Z 2600/2624 16004KT 8000 SCT020 SCT100

Observations et prévisions météorologiques de plus de 4000 aéroports (messages METAR et TAF).

Les stations disponibles sont représentées par des disques jaunes et rouges sur la carte.

Passer la souris dessus pour voir le nom de la station.

Cliquer dessus pour voir les observations et prévisions météorologiques.

Pour changer de carte: cliquez sur les boutons verts avec une croix noire pour zoomer, sur le bouton vert avec un tiret pour effectuer un zoom arrière, ou sur les flèches vertes pour les cartes adjacentes.


METAR-TAF: